createdAt,value
2017-05-04T00:01:14.219Z,0
2017-05-04T00:02:36.034Z,0
2017-05-04T00:03:57.864Z,0
2017-05-04T00:05:19.743Z,0
2017-05-04T00:06:41.489Z,0
2017-05-04T00:08:04.388Z,0
2017-05-04T00:09:26.196Z,0
2017-05-04T00:10:49.985Z,0
2017-05-04T00:12:11.955Z,0
2017-05-04T00:13:33.672Z,0
2017-05-04T00:14:56.572Z,0
2017-05-04T00:16:18.457Z,0
2017-05-04T00:17:40.273Z,0
2017-05-04T00:19:03.235Z,0
2017-05-04T00:20:24.996Z,0
2017-05-04T00:21:46.927Z,0
2017-05-04T00:23:08.729Z,0
2017-05-04T00:24:30.501Z,0
2017-05-04T00:25:52.336Z,0
2017-05-04T00:27:14.086Z,0
2017-05-04T00:28:35.861Z,0
2017-05-04T00:29:57.650Z,0
2017-05-04T00:31:19.524Z,0
2017-05-04T00:32:41.454Z,0
2017-05-04T00:34:04.210Z,0
2017-05-04T00:35:26.073Z,0
2017-05-04T00:36:47.860Z,0
2017-05-04T00:38:10.734Z,0
2017-05-04T00:39:32.580Z,0
2017-05-04T00:40:54.401Z,0
2017-05-04T00:42:16.203Z,0
2017-05-04T00:43:39.102Z,0
2017-05-04T00:45:00.937Z,0
2017-05-04T00:46:22.710Z,0
2017-05-04T00:47:44.558Z,0
2017-05-04T00:49:06.405Z,0
2017-05-04T00:50:28.246Z,0
2017-05-04T00:51:51.042Z,0
2017-05-04T00:53:12.854Z,0
2017-05-04T00:54:34.635Z,0
2017-05-04T00:55:56.349Z,0
2017-05-04T00:57:19.245Z,0
2017-05-04T00:58:41.177Z,0
2017-05-04T01:00:04.116Z,0
2017-05-04T01:01:27.362Z,0
2017-05-04T01:02:49.470Z,0
2017-05-04T01:04:11.252Z,0
2017-05-04T01:05:35.126Z,0
2017-05-04T01:06:56.939Z,0
2017-05-04T01:08:18.742Z,0
2017-05-04T01:09:40.736Z,0
2017-05-04T01:11:02.666Z,0
2017-05-04T01:12:24.396Z,0
2017-05-04T01:13:46.205Z,0
2017-05-04T01:15:07.911Z,0
2017-05-04T01:16:29.640Z,0
2017-05-04T01:17:52.382Z,0
2017-05-04T01:19:14.130Z,0
2017-05-04T01:20:35.889Z,0
2017-05-04T01:21:58.025Z,0
2017-05-04T01:23:19.875Z,0
2017-05-04T01:24:41.725Z,0
2017-05-04T01:26:03.631Z,0
2017-05-04T01:27:25.413Z,0
2017-05-04T01:28:47.220Z,0
2017-05-04T01:30:09.002Z,0
2017-05-04T01:31:30.708Z,0
2017-05-04T01:32:53.544Z,0
2017-05-04T01:34:15.761Z,0
2017-05-04T01:35:38.082Z,0
2017-05-04T01:36:59.873Z,0
2017-05-04T01:38:21.715Z,0
2017-05-04T01:39:43.508Z,0
2017-05-04T01:41:05.307Z,0
2017-05-04T01:42:27.084Z,0
2017-05-04T01:43:48.903Z,0
2017-05-04T01:45:10.707Z,0
2017-05-04T01:46:32.483Z,0
2017-05-04T01:47:54.320Z,0
2017-05-04T01:49:16.096Z,0
2017-05-04T01:50:37.902Z,0
2017-05-04T01:52:01.670Z,0
2017-05-04T01:53:23.474Z,0
2017-05-04T01:54:45.303Z,0
2017-05-04T01:56:07.138Z,0
2017-05-04T01:57:29.924Z,0
2017-05-04T01:58:51.800Z,0
2017-05-04T02:00:13.641Z,0
2017-05-04T02:01:35.390Z,0
2017-05-04T02:02:57.187Z,0
2017-05-04T02:04:19.073Z,0
2017-05-04T02:05:40.890Z,0
2017-05-04T02:07:02.635Z,0
2017-05-04T02:08:24.653Z,0
2017-05-04T02:09:47.715Z,0
2017-05-04T02:11:09.617Z,0
2017-05-04T02:12:32.662Z,0
2017-05-04T02:13:54.508Z,0
2017-05-04T02:15:16.238Z,0
2017-05-04T02:16:38.088Z,0
2017-05-04T02:17:59.772Z,0
2017-05-04T02:19:21.577Z,0
2017-05-04T02:20:43.370Z,0
2017-05-04T02:22:05.393Z,0
2017-05-04T02:23:27.202Z,0
2017-05-04T02:24:48.978Z,0
2017-05-04T02:26:10.799Z,0
2017-05-04T02:27:32.642Z,0
2017-05-04T02:28:54.445Z,0
2017-05-04T02:30:16.296Z,0
2017-05-04T02:31:38.126Z,0
2017-05-04T02:32:59.957Z,0
2017-05-04T02:34:21.722Z,0
2017-05-04T02:35:43.471Z,0
2017-05-04T02:37:06.298Z,0
2017-05-04T02:38:28.320Z,0
2017-05-04T02:39:50.096Z,0
2017-05-04T02:41:11.854Z,0
2017-05-04T02:42:34.135Z,0
2017-05-04T02:43:56.553Z,0
2017-05-04T02:45:18.236Z,0
2017-05-04T02:46:39.943Z,0
2017-05-04T02:48:01.752Z,0
2017-05-04T02:49:23.712Z,0
2017-05-04T02:50:45.437Z,0
2017-05-04T02:52:07.299Z,0
2017-05-04T02:53:29.084Z,0
2017-05-04T02:54:50.959Z,0
2017-05-04T02:56:12.870Z,0
2017-05-04T02:57:34.860Z,0
2017-05-04T02:58:57.880Z,0
2017-05-04T03:00:20.016Z,0
2017-05-04T03:01:42.000Z,0
2017-05-04T03:03:03.825Z,0
2017-05-04T03:04:25.696Z,0
2017-05-04T03:05:47.539Z,0
2017-05-04T03:07:09.336Z,0
2017-05-04T03:08:31.259Z,0
2017-05-04T03:09:54.052Z,0
2017-05-04T03:11:16.014Z,0
2017-05-04T03:12:37.741Z,0
2017-05-04T03:13:59.461Z,0
2017-05-04T03:15:22.296Z,0
2017-05-04T03:16:44.670Z,0
2017-05-04T03:18:06.383Z,0
2017-05-04T03:19:28.139Z,0
2017-05-04T03:20:49.906Z,4
2017-05-04T03:22:11.673Z,4
2017-05-04T03:23:33.413Z,0
2017-05-04T03:24:55.179Z,4
2017-05-04T03:26:16.880Z,8
2017-05-04T03:27:38.786Z,8
2017-05-04T03:29:01.517Z,8
2017-05-04T03:30:23.360Z,8
2017-05-04T03:31:45.127Z,12
2017-05-04T03:33:07.008Z,12
2017-05-04T03:34:28.767Z,16
2017-05-04T03:35:51.531Z,20
2017-05-04T03:37:13.275Z,28
2017-05-04T03:38:35.104Z,32
2017-05-04T03:39:57.866Z,36
2017-05-04T03:41:19.656Z,48
2017-05-04T03:42:41.532Z,56
2017-05-04T03:44:03.301Z,64
2017-05-04T03:45:25.040Z,76
2017-05-04T03:46:46.818Z,88
2017-05-04T03:48:08.513Z,104
2017-05-04T03:49:30.394Z,124
2017-05-04T03:50:52.399Z,144
2017-05-04T03:52:14.215Z,168
2017-05-04T03:53:35.956Z,196
2017-05-04T03:54:57.856Z,228
2017-05-04T03:56:19.690Z,260
2017-05-04T03:57:41.558Z,288
2017-05-04T03:59:03.482Z,316
2017-05-04T04:00:25.327Z,344
2017-05-04T04:01:48.156Z,368
2017-05-04T04:03:09.952Z,392
2017-05-04T04:04:31.871Z,420
2017-05-04T04:05:53.633Z,452
2017-05-04T04:07:15.502Z,492
2017-05-04T04:08:37.309Z,528
2017-05-04T04:09:59.162Z,568
2017-05-04T04:11:22.039Z,608
2017-05-04T04:12:43.919Z,660
2017-05-04T04:14:06.734Z,708
2017-05-04T04:15:29.638Z,752
2017-05-04T04:16:51.571Z,796
2017-05-04T04:18:13.435Z,860
2017-05-04T04:19:35.351Z,932
2017-05-04T04:20:57.206Z,960
2017-05-04T04:22:19.370Z,936
2017-05-04T04:23:41.266Z,940
2017-05-04T04:25:03.152Z,964
2017-05-04T04:26:26.146Z,988
2017-05-04T04:27:48.169Z,1032
2017-05-04T04:29:10.044Z,1096
2017-05-04T04:30:32.725Z,1128
2017-05-04T04:31:54.660Z,1156
2017-05-04T04:33:17.578Z,1176
2017-05-04T04:34:39.447Z,1184
2017-05-04T04:36:01.313Z,1216
2017-05-04T04:37:23.068Z,1276
2017-05-04T04:38:44.995Z,1384
2017-05-04T04:40:06.719Z,1528
2017-05-04T04:41:29.565Z,1660
2017-05-04T04:42:51.324Z,1800
2017-05-04T04:44:13.196Z,1944
2017-05-04T04:45:34.969Z,2064
2017-05-04T04:46:56.711Z,2200
2017-05-04T04:48:18.477Z,2392
2017-05-04T04:49:40.338Z,2608
2017-05-04T04:51:02.149Z,2796
2017-05-04T04:52:23.999Z,2984
2017-05-04T04:53:45.736Z,3160
2017-05-04T04:55:07.662Z,3312
2017-05-04T04:56:29.450Z,3420
2017-05-04T04:57:51.273Z,3492
2017-05-04T04:59:13.118Z,3548
2017-05-04T05:00:35.095Z,3616
2017-05-04T05:01:57.245Z,3724
2017-05-04T05:03:19.053Z,3784
2017-05-04T05:04:40.896Z,3804
2017-05-04T05:06:02.747Z,3852
2017-05-04T05:07:24.493Z,3900
2017-05-04T05:08:46.308Z,3916
2017-05-04T05:10:08.138Z,3932
2017-05-04T05:11:30.042Z,3948
2017-05-04T05:12:52.888Z,3960
2017-05-04T05:14:14.676Z,3960
2017-05-04T05:15:36.433Z,3992
2017-05-04T05:16:58.272Z,4016
2017-05-04T05:18:20.079Z,4096
2017-05-04T05:19:41.888Z,4196
2017-05-04T05:21:03.705Z,4312
2017-05-04T05:22:25.597Z,4492
2017-05-04T05:23:47.406Z,4592
2017-05-04T05:25:09.193Z,4584
2017-05-04T05:26:30.935Z,4628
2017-05-04T05:27:52.808Z,4740
2017-05-04T05:29:15.579Z,4836
2017-05-04T05:30:37.405Z,5008
2017-05-04T05:31:59.237Z,5204
2017-05-04T05:33:21.068Z,5364
2017-05-04T05:34:43.211Z,5560
2017-05-04T05:36:06.335Z,5768
2017-05-04T05:37:28.113Z,5944
2017-05-04T05:38:50.044Z,6132
2017-05-04T05:40:11.829Z,6364
2017-05-04T05:41:33.690Z,6540
2017-05-04T05:42:55.466Z,6772
2017-05-04T05:44:17.225Z,7012
2017-05-04T05:45:39.005Z,7232
2017-05-04T05:47:00.766Z,7404
2017-05-04T05:48:22.482Z,7612
2017-05-04T05:49:46.319Z,7712
2017-05-04T05:51:09.245Z,7796
2017-05-04T05:52:31.032Z,7836
2017-05-04T05:53:52.791Z,8008
2017-05-04T05:55:14.684Z,8004
2017-05-04T05:56:36.548Z,7908
2017-05-04T05:57:58.331Z,7832
2017-05-04T05:59:20.158Z,7772
2017-05-04T06:00:43.046Z,7872
2017-05-04T06:02:05.832Z,8192
2017-05-04T06:03:27.639Z,8264
2017-05-04T06:04:49.910Z,8424
2017-05-04T06:06:11.888Z,8488
2017-05-04T06:07:34.733Z,8496
2017-05-04T06:08:56.545Z,8480
2017-05-04T06:10:36.050Z,8448
2017-05-04T06:11:58.205Z,8404
2017-05-04T06:13:20.115Z,8396
2017-05-04T06:14:41.935Z,8352
2017-05-04T06:16:03.729Z,8256
2017-05-04T06:17:25.738Z,8080
2017-05-04T06:18:47.463Z,8008
2017-05-04T06:20:11.353Z,8000
2017-05-04T06:21:33.196Z,8028
2017-05-04T06:22:54.988Z,8112
2017-05-04T06:24:16.842Z,8212
2017-05-04T06:25:38.574Z,8372
2017-05-04T06:27:00.347Z,8652
2017-05-04T06:28:22.377Z,8892
2017-05-04T06:29:44.131Z,8888
2017-05-04T06:31:05.910Z,8780
2017-05-04T06:32:27.765Z,8736
2017-05-04T06:33:49.562Z,8760
2017-05-04T06:35:11.359Z,8720
2017-05-04T06:36:33.191Z,8776
2017-05-04T06:37:54.943Z,8968
2017-05-04T06:39:16.990Z,9112
2017-05-04T06:40:38.741Z,9036
2017-05-04T06:42:00.590Z,9028
2017-05-04T06:43:22.304Z,8872
2017-05-04T06:44:44.174Z,8860
2017-05-04T06:46:06.148Z,8880
2017-05-04T06:47:28.066Z,8932
2017-05-04T06:48:49.809Z,9096
2017-05-04T06:50:11.796Z,9172
2017-05-04T06:51:33.594Z,9084
2017-05-04T06:52:55.365Z,8972
2017-05-04T06:54:17.257Z,8840
2017-05-04T06:55:39.077Z,8676
2017-05-04T06:57:00.981Z,8584
2017-05-04T06:58:22.750Z,8460
2017-05-04T06:59:44.498Z,8324
2017-05-04T07:01:06.358Z,8264
2017-05-04T07:02:28.162Z,8304
2017-05-04T07:03:53.325Z,8240
2017-05-04T07:05:15.113Z,8176
2017-05-04T07:06:38.005Z,8156
2017-05-04T07:08:00.812Z,8228
2017-05-04T07:09:22.673Z,8292
2017-05-04T07:10:44.663Z,8252
2017-05-04T07:12:06.550Z,8212
2017-05-04T07:13:28.340Z,8232
2017-05-04T07:14:50.061Z,8284
2017-05-04T07:16:11.869Z,8320
2017-05-04T07:17:33.803Z,8352
2017-05-04T07:18:55.758Z,8352
2017-05-04T07:20:17.878Z,8340
2017-05-04T07:21:40.047Z,8400
2017-05-04T07:23:03.197Z,8472
2017-05-04T07:24:25.080Z,8600
2017-05-04T07:25:46.975Z,8776
2017-05-04T07:27:08.828Z,8944
2017-05-04T07:28:30.793Z,9084
2017-05-04T07:29:52.648Z,9180
2017-05-04T07:31:14.616Z,9264
2017-05-04T07:32:36.454Z,9416
2017-05-04T07:33:58.465Z,9656
2017-05-04T07:35:20.203Z,9944
2017-05-04T07:36:41.959Z,10160
2017-05-04T07:38:03.723Z,10356
2017-05-04T07:39:25.691Z,10512
2017-05-04T07:40:47.426Z,10636
2017-05-04T07:42:09.354Z,10872
2017-05-04T07:43:31.161Z,11196
2017-05-04T07:44:53.076Z,11484
2017-05-04T07:46:14.869Z,11668
2017-05-04T07:47:36.683Z,11864
2017-05-04T07:48:58.456Z,12088
2017-05-04T07:50:21.316Z,12200
2017-05-04T07:51:43.169Z,12244
2017-05-04T07:53:04.984Z,12256
2017-05-04T07:54:26.804Z,12276
2017-05-04T07:55:48.803Z,12216
2017-05-04T07:57:10.593Z,12228
2017-05-04T07:58:32.464Z,12312
2017-05-04T07:59:54.214Z,12424
2017-05-04T08:01:16.120Z,12668
2017-05-04T08:02:38.016Z,12940
2017-05-04T08:03:59.959Z,13112
2017-05-04T08:05:21.742Z,13180
2017-05-04T08:06:43.546Z,13196
2017-05-04T08:08:05.414Z,13240
2017-05-04T08:09:27.154Z,13384
2017-05-04T08:10:48.980Z,13660
2017-05-04T08:12:10.765Z,13888
2017-05-04T08:13:32.562Z,14304
2017-05-04T08:15:04.146Z,14624
2017-05-04T08:16:25.953Z,14816
2017-05-04T08:17:47.810Z,15072
2017-05-04T08:19:09.646Z,15360
2017-05-04T08:20:31.364Z,15616
2017-05-04T08:21:53.208Z,15680
2017-05-04T08:23:15.022Z,15904
2017-05-04T08:24:36.766Z,16224
2017-05-04T08:25:58.569Z,16640
2017-05-04T08:27:20.389Z,17280
2017-05-04T08:28:42.185Z,17952
2017-05-04T08:30:03.996Z,18592
2017-05-04T08:31:25.953Z,19104
2017-05-04T08:32:47.834Z,19520
2017-05-04T08:34:09.780Z,19872
2017-05-04T08:35:31.708Z,20352
2017-05-04T08:36:53.507Z,20928
2017-05-04T08:38:15.303Z,21440
2017-05-04T08:39:37.169Z,21952
2017-05-04T08:40:58.956Z,22432
2017-05-04T08:42:20.757Z,22784
2017-05-04T08:43:42.533Z,22912
2017-05-04T08:45:05.319Z,22976
2017-05-04T08:46:27.128Z,23104
2017-05-04T08:47:49.720Z,23424
2017-05-04T08:49:11.451Z,23872
2017-05-04T08:50:33.354Z,24512
2017-05-04T08:51:55.214Z,25184
2017-05-04T08:53:17.051Z,25760
2017-05-04T08:54:48.624Z,26112
2017-05-04T08:56:10.562Z,26304
2017-05-04T08:57:32.403Z,26496
2017-05-04T08:58:54.240Z,26816
2017-05-04T09:00:16.015Z,27072
2017-05-04T09:01:38.062Z,27200
2017-05-04T09:02:59.850Z,27232
2017-05-04T09:04:21.635Z,27328
2017-05-04T09:05:43.438Z,27392
2017-05-04T09:07:05.411Z,27808
2017-05-04T09:08:27.341Z,29248
2017-05-04T09:09:49.445Z,31360
2017-05-04T09:11:11.334Z,36928
2017-05-04T09:12:34.163Z,67136
2017-05-04T09:13:55.980Z,66560
2017-05-04T09:15:17.778Z,68544
2017-05-04T09:16:39.583Z,59424
2017-05-04T09:18:01.429Z,41568
2017-05-04T09:19:23.285Z,56160
2017-05-04T09:20:45.119Z,62400
2017-05-04T09:22:06.865Z,61984
2017-05-04T09:23:28.641Z,67584
2017-05-04T09:24:50.447Z,67488
2017-05-04T09:26:12.187Z,69376
2017-05-04T09:27:33.930Z,78688
2017-05-04T09:28:55.784Z,79072
2017-05-04T09:30:17.697Z,78144
2017-05-04T09:31:39.470Z,90464
2017-05-04T09:33:01.364Z,87040
2017-05-04T09:34:23.486Z,86592
2017-05-04T09:35:45.248Z,89952
2017-05-04T09:37:06.997Z,88768
2017-05-04T09:38:28.777Z,89824
2017-05-04T09:39:50.536Z,89664
2017-05-04T09:41:12.346Z,69920
2017-05-04T09:42:34.036Z,64000
2017-05-04T09:43:55.815Z,64864
2017-05-04T09:45:17.817Z,56992
2017-05-04T09:46:39.544Z,89952
2017-05-04T09:48:01.372Z,91392
2017-05-04T09:49:23.361Z,78752
2017-05-04T09:50:45.258Z,80544
2017-05-04T09:52:07.089Z,73600
2017-05-04T09:53:28.891Z,54336
2017-05-04T09:54:52.271Z,53248
2017-05-04T09:56:14.136Z,55936
2017-05-04T09:57:35.869Z,58112
2017-05-04T09:58:57.759Z,47008
2017-05-04T10:00:19.500Z,59936
2017-05-04T10:01:41.345Z,41344
2017-05-04T10:03:03.083Z,52064
2017-05-04T10:04:24.857Z,51520
2017-05-04T10:05:46.650Z,51808
2017-05-04T10:07:08.456Z,48672
2017-05-04T10:08:30.275Z,53824
2017-05-04T10:09:52.142Z,55904
2017-05-04T10:11:14.000Z,60896
2017-05-04T10:12:35.911Z,59104
2017-05-04T10:13:57.740Z,64576
2017-05-04T10:15:19.623Z,62752
2017-05-04T10:16:41.410Z,59072
2017-05-04T10:18:03.225Z,62496
2017-05-04T10:19:25.024Z,64000
2017-05-04T10:20:46.858Z,51616
2017-05-04T10:22:08.941Z,45344
2017-05-04T10:23:31.746Z,67008
2017-05-04T10:24:53.705Z,62656
2017-05-04T10:26:15.837Z,67712
2017-05-04T10:27:37.600Z,60928
2017-05-04T10:28:59.431Z,65760
2017-05-04T10:30:21.259Z,64288
2017-05-04T10:31:42.990Z,73248
2017-05-04T10:33:04.797Z,73280
2017-05-04T10:34:26.664Z,72288
2017-05-04T10:35:48.540Z,82048
2017-05-04T10:37:10.367Z,89248
2017-05-04T10:38:32.140Z,86400
2017-05-04T10:39:54.042Z,68416
2017-05-04T10:41:15.890Z,78272
2017-05-04T10:42:37.759Z,41376
2017-05-04T10:43:59.650Z,40032
2017-05-04T10:45:21.537Z,118976
2017-05-04T10:46:43.356Z,102880
2017-05-04T10:48:05.230Z,95776
2017-05-04T10:49:27.059Z,80640
2017-05-04T10:50:48.861Z,76736
2017-05-04T10:52:10.776Z,76288
2017-05-04T10:53:32.578Z,77696
2017-05-04T10:54:54.354Z,97344
2017-05-04T10:56:16.345Z,107424
2017-05-04T10:57:38.224Z,33280
2017-05-04T10:59:00.088Z,34656
2017-05-04T11:00:21.993Z,78464
2017-05-04T11:01:44.098Z,51488
2017-05-04T11:03:05.909Z,62240
2017-05-04T11:04:27.698Z,31616
2017-05-04T11:05:49.512Z,27168
2017-05-04T11:07:11.445Z,24864
2017-05-04T11:08:33.234Z,23104
2017-05-04T11:09:55.165Z,23328
2017-05-04T11:11:16.962Z,27072
2017-05-04T11:12:38.851Z,28224
2017-05-04T11:14:00.716Z,49792
2017-05-04T11:15:23.485Z,22976
2017-05-04T11:16:45.218Z,36480
2017-05-04T11:18:07.070Z,25952
2017-05-04T11:19:28.885Z,25312
2017-05-04T11:20:50.739Z,26208
2017-05-04T11:22:12.579Z,29024
2017-05-04T11:23:34.368Z,74304
2017-05-04T11:24:56.132Z,79840
2017-05-04T11:26:17.994Z,83872
2017-05-04T11:27:39.850Z,84224
2017-05-04T11:29:02.387Z,89376
2017-05-04T11:30:24.112Z,72480
2017-05-04T11:31:46.014Z,24544
2017-05-04T11:33:07.843Z,21728
2017-05-04T11:34:30.753Z,20160
2017-05-04T11:35:52.507Z,19296
2017-05-04T11:37:14.323Z,18688
2017-05-04T11:38:36.119Z,17984
2017-05-04T11:39:58.486Z,17568
2017-05-04T11:41:20.369Z,17184
2017-05-04T11:42:42.128Z,16640
2017-05-04T11:44:04.007Z,16224
2017-05-04T11:45:25.754Z,15872
2017-05-04T11:46:47.509Z,15232
2017-05-04T11:48:09.322Z,14464
2017-05-04T11:49:31.172Z,13620
2017-05-04T11:50:53.157Z,13228
2017-05-04T11:52:14.905Z,13160
2017-05-04T11:53:36.679Z,13272
2017-05-04T11:54:58.598Z,13760
2017-05-04T11:56:20.397Z,14624
2017-05-04T11:57:42.290Z,15136
2017-05-04T11:59:04.118Z,15136
2017-05-04T12:00:25.974Z,14816
2017-05-04T12:01:47.880Z,14464
2017-05-04T12:03:09.592Z,14008
2017-05-04T12:04:31.341Z,14272
2017-05-04T12:05:53.165Z,14816
2017-05-04T12:07:15.270Z,15392
2017-05-04T12:08:38.370Z,16000
2017-05-04T12:10:02.751Z,16896
2017-05-04T12:11:24.536Z,19008
2017-05-04T12:12:46.465Z,22816
2017-05-04T12:14:08.314Z,23520
2017-05-04T12:15:30.176Z,28832
2017-05-04T12:16:52.005Z,43328
2017-05-04T12:18:14.002Z,52704
2017-05-04T12:19:35.810Z,49984
2017-05-04T12:20:57.749Z,54624
2017-05-04T12:22:29.331Z,53600
2017-05-04T12:23:51.240Z,41120
2017-05-04T12:25:12.997Z,64128
2017-05-04T12:26:34.846Z,65696
2017-05-04T12:27:56.576Z,62784
2017-05-04T12:29:18.426Z,59872
2017-05-04T12:30:40.283Z,68160
2017-05-04T12:32:02.124Z,70912
2017-05-04T12:33:23.932Z,74080
2017-05-04T12:34:45.794Z,98048
2017-05-04T12:36:07.717Z,114944
2017-05-04T12:37:29.668Z,97600
2017-05-04T12:38:51.529Z,59424
2017-05-04T12:40:13.296Z,20032
2017-05-04T12:41:35.140Z,18944
2017-05-04T12:42:57.085Z,15712
2017-05-04T12:44:18.962Z,14428
2017-05-04T12:45:40.809Z,13792
2017-05-04T12:47:02.670Z,13548
2017-05-04T12:48:24.537Z,12996
2017-05-04T12:49:46.418Z,12344
2017-05-04T12:51:08.343Z,11788
2017-05-04T12:52:30.158Z,11408
2017-05-04T12:53:52.067Z,11536
2017-05-04T12:55:13.913Z,11780
2017-05-04T12:56:35.742Z,11528
2017-05-04T12:57:57.690Z,10772
2017-05-04T12:59:19.532Z,10464
2017-05-04T13:00:41.391Z,9916
2017-05-04T13:02:03.322Z,9428
2017-05-04T13:03:25.061Z,9796
2017-05-04T13:04:46.898Z,10032
2017-05-04T13:06:08.831Z,10512
2017-05-04T13:07:30.810Z,10820
2017-05-04T13:08:52.715Z,11340
2017-05-04T13:10:16.503Z,11812
2017-05-04T13:11:38.566Z,12488
2017-05-04T13:13:00.393Z,13344
2017-05-04T13:14:24.234Z,14012
2017-05-04T13:15:46.078Z,14656
2017-05-04T13:17:11.974Z,14976
2017-05-04T13:18:36.487Z,15104
2017-05-04T13:20:02.417Z,15136
2017-05-04T13:21:26.489Z,14976
2017-05-04T13:22:48.325Z,14720
2017-05-04T13:24:10.148Z,14328
2017-05-04T13:25:32.110Z,14256
2017-05-04T13:26:53.897Z,14280
2017-05-04T13:28:15.658Z,14360
2017-05-04T13:29:39.442Z,14656
2017-05-04T13:31:01.319Z,14912
2017-05-04T13:32:23.028Z,14752
2017-05-04T13:33:44.896Z,14656
2017-05-04T13:35:06.805Z,14688
2017-05-04T13:36:28.604Z,14260
2017-05-04T13:37:50.378Z,14180
2017-05-04T13:39:12.229Z,14192
2017-05-04T13:40:34.120Z,14148
2017-05-04T13:41:56.563Z,14056
2017-05-04T13:43:18.391Z,13976
2017-05-04T13:44:40.306Z,13964
2017-05-04T13:46:02.134Z,13924
2017-05-04T13:47:23.977Z,13896
2017-05-04T13:48:45.844Z,13428
2017-05-04T13:50:07.581Z,12544
2017-05-04T13:51:29.427Z,12112
2017-05-04T13:53:02.090Z,12036
2017-05-04T13:54:23.882Z,11760
2017-05-04T13:55:45.708Z,11840
2017-05-04T13:57:08.564Z,12012
2017-05-04T13:58:30.325Z,11856
2017-05-04T13:59:52.086Z,11448
2017-05-04T14:01:13.876Z,11252
2017-05-04T14:02:35.750Z,11328
2017-05-04T14:03:57.574Z,11252
2017-05-04T14:05:19.377Z,10928
2017-05-04T14:06:41.222Z,10568
2017-05-04T14:08:03.083Z,10400
2017-05-04T14:09:24.886Z,10212
2017-05-04T14:10:46.748Z,10004
2017-05-04T14:12:08.588Z,9620
2017-05-04T14:13:42.139Z,9156
2017-05-04T14:15:09.780Z,8508
2017-05-04T14:17:11.168Z,8072
2017-05-04T14:19:08.601Z,7564
2017-05-04T14:21:04.180Z,7200
2017-05-04T14:22:58.557Z,6876
2017-05-04T14:24:52.434Z,6460
2017-05-04T14:26:50.246Z,6060
2017-05-04T14:28:49.035Z,5656
2017-05-04T14:30:48.225Z,4996
2017-05-04T14:32:51.051Z,4304
2017-05-04T14:36:49.838Z,2476
2017-05-04T14:38:51.205Z,2392
2017-05-04T14:40:51.043Z,2876
2017-05-04T14:47:01.407Z,2816
2017-05-04T14:49:03.053Z,2660
2017-05-04T14:51:07.204Z,2536
2017-05-04T14:53:06.397Z,2336
2017-05-04T14:55:10.146Z,1504
2017-05-04T14:57:11.811Z,1016
2017-05-04T14:59:09.839Z,848
2017-05-04T15:01:11.586Z,740
2017-05-04T15:03:10.679Z,652
2017-05-04T15:04:34.477Z,612
2017-05-04T15:05:57.776Z,580
2017-05-04T15:07:19.605Z,536
2017-05-04T15:08:43.321Z,520
2017-05-04T15:10:05.497Z,484
2017-05-04T15:11:27.357Z,428
2017-05-04T15:12:49.232Z,388
2017-05-04T15:14:11.051Z,372
2017-05-04T15:15:32.833Z,424
2017-05-04T15:16:54.611Z,416
2017-05-04T15:18:16.531Z,448
2017-05-04T15:19:38.445Z,400
2017-05-04T15:21:03.559Z,404
2017-05-04T15:22:25.362Z,424
2017-05-04T15:23:47.236Z,432
2017-05-04T15:25:09.979Z,456
2017-05-04T15:26:31.831Z,440
2017-05-04T15:27:53.698Z,504
2017-05-04T15:29:16.550Z,516
2017-05-04T15:30:39.386Z,616
2017-05-04T15:32:01.231Z,644
2017-05-04T15:33:23.078Z,688
2017-05-04T15:34:44.884Z,724
2017-05-04T15:36:06.686Z,732
2017-05-04T15:37:28.611Z,748
2017-05-04T15:38:50.497Z,764
2017-05-04T15:40:13.758Z,784
2017-05-04T15:41:37.367Z,796
2017-05-04T15:43:00.519Z,824
2017-05-04T15:44:23.439Z,828
2017-05-04T15:45:45.519Z,840
2017-05-04T15:47:08.207Z,848
2017-05-04T15:48:32.688Z,852
2017-05-04T15:49:54.870Z,852
2017-05-04T15:51:16.685Z,844
2017-05-04T15:52:38.516Z,840
2017-05-04T15:54:00.544Z,840
2017-05-04T15:55:22.416Z,836
2017-05-04T15:56:44.188Z,892
2017-05-04T15:58:06.108Z,888
2017-05-04T15:59:27.933Z,892
2017-05-04T16:00:49.826Z,872
2017-05-04T16:02:11.709Z,844
2017-05-04T16:03:33.535Z,800
2017-05-04T16:04:56.129Z,748
2017-05-04T16:06:18.886Z,716
2017-05-04T16:07:42.281Z,684
2017-05-04T16:09:04.076Z,660
2017-05-04T16:10:26.016Z,644
2017-05-04T16:11:47.811Z,612
2017-05-04T16:13:10.631Z,600
2017-05-04T16:14:32.413Z,584
2017-05-04T16:15:55.263Z,568
2017-05-04T16:17:17.106Z,556
2017-05-04T16:18:39.278Z,560
2017-05-04T16:20:01.798Z,580
2017-05-04T16:21:25.513Z,628
2017-05-04T16:22:47.866Z,680
2017-05-04T16:24:09.736Z,720
2017-05-04T16:25:31.555Z,780
2017-05-04T16:26:54.556Z,852
2017-05-04T16:28:16.444Z,916
2017-05-04T16:29:38.396Z,992
2017-05-04T16:31:02.220Z,1052
2017-05-04T16:32:26.116Z,1136
2017-05-04T16:33:47.942Z,1240
2017-05-04T16:35:09.764Z,1340
2017-05-04T16:36:31.523Z,1432
2017-05-04T16:37:53.460Z,1464
2017-05-04T16:39:15.317Z,1520
2017-05-04T16:40:37.217Z,1564
2017-05-04T16:41:58.967Z,1612
2017-05-04T16:43:20.914Z,1688
2017-05-04T16:44:42.794Z,1756
2017-05-04T16:46:06.712Z,1856
2017-05-04T16:47:33.316Z,1960
2017-05-04T16:48:56.212Z,2044
2017-05-04T16:50:18.090Z,2116
2017-05-04T16:51:39.830Z,2168
2017-05-04T16:53:07.049Z,2252
2017-05-04T16:54:28.845Z,2332
2017-05-04T16:55:51.653Z,2468
2017-05-04T16:57:14.504Z,2608
2017-05-04T16:58:36.305Z,2804
2017-05-04T16:59:58.249Z,2912
2017-05-04T17:01:20.064Z,2896
2017-05-04T17:02:42.033Z,2968
2017-05-04T17:04:05.900Z,3060
2017-05-04T17:05:27.660Z,2840
2017-05-04T17:06:50.591Z,3176
2017-05-04T17:08:12.531Z,3236
2017-05-04T17:09:35.260Z,3268
2017-05-04T17:10:57.345Z,3292
2017-05-04T17:12:19.374Z,3096
2017-05-04T17:13:44.251Z,3000
2017-05-04T17:15:06.133Z,2764
2017-05-04T17:17:38.454Z,2524
2017-05-04T17:19:01.249Z,2380
2017-05-04T17:20:23.043Z,2308
2017-05-04T17:21:46.039Z,2192
2017-05-04T17:23:07.915Z,1992
2017-05-04T17:24:29.765Z,1744
2017-05-04T17:25:51.660Z,1536
2017-05-04T17:27:13.476Z,1376
2017-05-04T17:28:35.428Z,1260
2017-05-04T17:31:07.075Z,1100
2017-05-04T17:33:38.780Z,1076
2017-05-04T17:36:11.398Z,1084
2017-05-04T17:37:33.261Z,1120
2017-05-04T17:38:55.179Z,1176
2017-05-04T17:40:17.067Z,1220
2017-05-04T17:41:38.984Z,1244
2017-05-04T17:43:00.939Z,1224
2017-05-04T17:44:22.793Z,1176
2017-05-04T17:45:44.845Z,1092
2017-05-04T17:47:06.672Z,992
2017-05-04T17:48:28.568Z,876
2017-05-04T17:49:51.370Z,780
2017-05-04T17:51:13.206Z,708
2017-05-04T17:52:34.997Z,684
2017-05-04T17:53:56.812Z,644
2017-05-04T17:55:19.672Z,616
2017-05-04T17:56:41.501Z,596
2017-05-04T17:58:03.275Z,596
2017-05-04T17:59:25.149Z,584
2017-05-04T18:00:46.993Z,568
2017-05-04T18:02:08.745Z,544
2017-05-04T18:03:32.612Z,516
2017-05-04T18:04:54.451Z,476
2017-05-04T18:06:18.356Z,432
2017-05-04T18:07:40.198Z,388
2017-05-04T18:09:02.033Z,360
2017-05-04T18:10:23.937Z,344
2017-05-04T18:11:45.822Z,340
2017-05-04T18:13:07.579Z,336
2017-05-04T18:14:29.343Z,332
2017-05-04T18:15:51.241Z,324
2017-05-04T18:17:13.274Z,312
2017-05-04T18:18:35.045Z,300
2017-05-04T18:19:56.857Z,284
2017-05-04T18:21:18.778Z,264
2017-05-04T18:22:40.729Z,244
2017-05-04T18:24:02.583Z,220
2017-05-04T18:25:25.420Z,192
2017-05-04T18:26:47.313Z,164
2017-05-04T18:28:09.218Z,140
2017-05-04T18:29:31.166Z,116
2017-05-04T18:30:54.080Z,96
2017-05-04T18:32:16.073Z,80
2017-05-04T18:33:38.029Z,68
2017-05-04T18:34:59.865Z,56
2017-05-04T18:36:21.743Z,48
2017-05-04T18:37:43.751Z,44
2017-05-04T18:39:05.481Z,40
2017-05-04T18:40:27.299Z,36
2017-05-04T18:41:49.215Z,32
2017-05-04T18:43:11.126Z,28
2017-05-04T18:44:33.013Z,20
2017-05-04T18:45:54.880Z,20
2017-05-04T18:47:16.753Z,16
2017-05-04T18:48:38.620Z,12
2017-05-04T18:50:00.474Z,8
2017-05-04T18:51:22.310Z,4
2017-05-04T18:52:44.050Z,4
2017-05-04T18:54:05.947Z,4